Accueil
METAR-TAF:

METAR-TAF

Aéroports :

Guymon, Oklahoma, États-Unis

latitude: 36-40-54N, longitude: 101-30-19W, altitude: 952 m

Observation

Le bulletin a été fait il y a 44 minutes, à 16:53 UTC
Vent 11 kt de nord
Température 17°C
Humidité 55%
Pression 1023 hPa
Visibilité: 16.1 km
Nuages fragmentés à une hauteur de 6000 ft

METAR: KGUY 201653Z AUTO 36011KT 10SM BKN060 17/08 A3020 RMK AO2 SLP203 T01670078

Heure: 12:37 (17:37 UTC)

Prévision

Le bulletin a été fait il y a 12 minutes, à 17:25 UTC
Prévision valable du 20 à 18 UTC au 21 à 18 UTC
Vent 6 kt de direction variable
Visibilité: 10 km
Ciel clair
A partir de 21 à 1000 UTC
Vent 6 kt de direction variable
Visibilité: 10 km
Nuages fragmentés à une hauteur de 3500 ft
A partir de 21 à 1700 UTC
Vent 14 kt de sud
Visibilité: 10 km
Nuages épars à une hauteur de 5000 ft

TAF: KGUY 201725Z 2018/2118 VRB06KT P6SM SKC FM211000 VRB06KT P6SM BKN035 FM211700 18014KT P6SM SCT050

Observations et prévisions météorologiques de plus de 4000 aéroports (messages METAR et TAF).

Les stations disponibles sont représentées par des disques jaunes et rouges sur la carte.

Passer la souris dessus pour voir le nom de la station.

Cliquer dessus pour voir les observations et prévisions météorologiques.

Pour changer de carte: cliquez sur les boutons verts avec une croix noire pour zoomer, sur le bouton vert avec un tiret pour effectuer un zoom arrière, ou sur les flèches vertes pour les cartes adjacentes.


METAR-TAF: